CheckWX is a tool to help pilots better visualize weather data.  It is not intended as a substitute for an official pre-flight weather briefing.

15:45:59 UTC

KLGB METAR
Long Beach / Daugherty Field / Airport
Long Beach, California, USA
Current

53 mins ago

KLGB 211453Z 31003KT 10SM CLR 20/15 A2994 RMK AO2 SLP136 T02000150 53009
Observed
Jul-21 @ 14:53 UTC
Wind
  • 310° at 3 KTS
Visibility
10 SM
Flight Rules
VFR
Cloud Levels
  • Clear skies
Temperature
20°C / 68°F
Dewpoint
15°C / 59°F
Humidity
73%
Altimeter
29.94" Hg
Pressure
1013.92 hPa
Previous

2 hours ago

KLGB 211353Z 34004KT 10SM CLR 19/14 A2992 RMK AO2 SLP132 T01890144
Observed
Jul-21 @ 13:53 UTC
Wind
  • 340° at 4 KTS
Visibility
10 SM
Flight Rules
VFR
Cloud Levels
  • Clear skies
Temperature
19°C / 66°F
Dewpoint
14°C / 57°F
Humidity
73%
Altimeter
29.92" Hg
Pressure
1013.22 hPa
Previous

3 hours ago

KLGB 211253Z AUTO 35003KT 10SM CLR 18/14 A2991 RMK AO2 SLP129 T01830144
Observed
Jul-21 @ 12:53 UTC
Wind
  • 350° at 3 KTS
Visibility
10 SM
Flight Rules
VFR
Cloud Levels
  • Clear skies
Temperature
18°C / 64°F
Dewpoint
14°C / 57°F
Humidity
78%
Altimeter
29.91" Hg
Pressure
1012.92 hPa